createdAt,value
2019-04-22T00:00:45.396Z,3.80
2019-04-22T00:03:20.699Z,3.80
2019-04-22T00:06:14.831Z,3.33
2019-04-22T00:08:50.686Z,3.80
2019-04-22T00:11:25.772Z,3.33
2019-04-22T00:13:51.938Z,3.75
2019-04-22T00:16:27.419Z,3.87
2019-04-22T00:19:09.374Z,3.02
2019-04-22T00:23:57.863Z,3.85
2019-04-22T00:26:38.046Z,3.72
2019-04-22T00:29:21.392Z,3.42
2019-04-22T00:31:57.518Z,3.25
2019-04-22T00:34:25.409Z,3.45
2019-04-22T00:37:01.015Z,3.05
2019-04-22T00:39:35.873Z,3.27
2019-04-22T00:42:10.054Z,3.90
2019-04-22T00:44:41.556Z,3.27
2019-04-22T00:47:21.151Z,3.55
2019-04-22T00:52:16.695Z,3.55
2019-04-22T00:54:55.686Z,2.90
2019-04-22T00:57:15.787Z,4.10
2019-04-22T00:59:54.825Z,3.55
2019-04-22T01:04:53.860Z,3.20
2019-04-22T01:07:27.139Z,3.50
2019-04-22T01:09:58.543Z,3.67
2019-04-22T01:15:05.818Z,3.90
2019-04-22T01:17:35.919Z,3.70
2019-04-22T01:20:16.103Z,3.35
2019-04-22T01:22:34.957Z,3.27
2019-04-22T01:25:11.346Z,4.12
2019-04-22T01:27:34.958Z,3.50
2019-04-22T01:30:07.414Z,3.70
2019-04-22T01:32:34.408Z,3.33
2019-04-22T01:35:13.116Z,3.65
2019-04-22T01:37:52.385Z,3.35
2019-04-22T01:43:02.164Z,4.55
2019-04-22T01:45:31.402Z,4.28
2019-04-22T01:48:06.528Z,4.22
2019-04-22T01:50:31.798Z,3.50
2019-04-22T01:53:13.320Z,3.60
2019-04-22T01:55:38.931Z,3.70
2019-04-22T01:58:06.701Z,4.42
2019-04-22T02:00:51.479Z,3.70
2019-04-22T02:03:21.692Z,3.95
2019-04-22T02:05:45.169Z,3.75
2019-04-22T02:08:27.673Z,3.25
2019-04-22T02:13:23.808Z,4.00
2019-04-22T02:18:36.231Z,3.92
2019-04-22T02:20:55.347Z,3.70
2019-04-22T02:41:28.480Z,4.45
2019-04-22T02:44:10.659Z,4.20
2019-04-22T02:49:22.241Z,3.75
2019-04-22T02:51:30.113Z,4.20
2019-04-22T02:56:35.995Z,4.55
2019-04-22T02:59:09.478Z,4.85
2019-04-22T03:04:09.344Z,3.33
2019-04-22T03:09:18.111Z,4.20
2019-04-22T03:12:04.592Z,3.80
2019-04-22T03:14:34.057Z,3.22
2019-04-22T03:21:57.918Z,4.03
2019-04-22T03:27:00.896Z,4.33
2019-04-22T03:35:37.234Z,4.50
2019-04-22T03:40:26.706Z,4.10
2019-04-22T03:53:04.013Z,3.75
2019-04-22T03:55:46.731Z,3.83
2019-04-22T04:03:07.058Z,3.85
2019-04-22T04:10:40.047Z,3.90
2019-04-22T04:13:23.242Z,3.62
2019-04-22T04:15:34.668Z,5.00
2019-04-22T04:18:19.197Z,3.85
2019-04-22T04:23:31.064Z,4.25
2019-04-22T04:28:50.323Z,3.80
2019-04-22T04:31:00.526Z,3.52
2019-04-22T04:33:40.682Z,3.47
2019-04-22T04:36:17.094Z,4.08
2019-04-22T04:38:45.660Z,3.22
2019-04-22T04:43:50.593Z,4.37
2019-04-22T04:46:16.596Z,4.65
2019-04-22T04:49:00.906Z,4.15
2019-04-22T04:51:33.278Z,3.95
2019-04-22T05:04:04.672Z,3.87
2019-04-22T05:06:43.262Z,4.22
2019-04-22T05:09:11.111Z,3.92
2019-04-22T05:11:45.268Z,4.08
2019-04-22T05:16:41.208Z,4.80
2019-04-22T05:19:09.700Z,3.87
2019-04-22T05:21:43.531Z,3.52
2019-04-22T05:24:14.988Z,4.62
2019-04-22T05:26:44.813Z,3.87
2019-04-22T05:29:15.039Z,4.62
2019-04-22T05:31:45.976Z,4.37
2019-04-22T05:34:15.847Z,4.00
2019-04-22T05:36:49.428Z,3.80
2019-04-22T05:39:28.457Z,4.00
2019-04-22T05:41:48.761Z,4.15
2019-04-22T05:44:22.642Z,3.72
2019-04-22T05:46:54.398Z,4.53
2019-04-22T05:49:23.881Z,4.10
2019-04-22T05:51:54.993Z,4.12
2019-04-22T05:54:34.682Z,4.10
2019-04-22T05:57:04.105Z,4.78
2019-04-22T05:59:44.598Z,4.70
2019-04-22T06:02:21.087Z,4.28
2019-04-22T06:04:48.388Z,4.55
2019-04-22T06:07:09.703Z,4.15
2019-04-22T06:09:43.490Z,4.70
2019-04-22T06:12:16.125Z,4.50
2019-04-22T06:14:54.066Z,5.28
2019-04-22T06:17:24.956Z,4.65
2019-04-22T06:19:58.932Z,5.40
2019-04-22T06:22:37.504Z,6.00
2019-04-22T06:25:00.860Z,6.37
2019-04-22T06:27:37.174Z,5.00
2019-04-22T06:30:05.006Z,5.28
2019-04-22T06:32:59.209Z,4.95
2019-04-22T06:35:16.610Z,5.33
2019-04-22T06:37:55.064Z,4.67
2019-04-22T06:40:19.847Z,4.92
2019-04-22T06:42:52.590Z,5.60
2019-04-22T06:48:00.397Z,4.90
2019-04-22T06:50:30.278Z,4.92
2019-04-22T06:53:03.013Z,5.12
2019-04-22T06:55:39.012Z,5.28
2019-04-22T06:58:08.710Z,4.45
2019-04-22T07:00:36.726Z,5.37
2019-04-22T07:05:41.321Z,6.12
2019-04-22T07:08:39.428Z,5.72
2019-04-22T07:10:47.687Z,5.67
2019-04-22T07:13:24.629Z,5.25
2019-04-22T07:18:28.316Z,4.50
2019-04-22T07:20:58.262Z,5.92
2019-04-22T07:26:00.254Z,4.78
2019-04-22T07:28:27.481Z,6.15
2019-04-22T07:33:58.404Z,5.20
2019-04-22T07:36:47.148Z,5.37
2019-04-22T07:39:08.640Z,4.87
2019-04-22T07:41:39.325Z,4.78
2019-04-22T07:46:45.130Z,5.75
2019-04-22T07:49:33.589Z,5.87
2019-04-22T07:51:44.478Z,5.50
2019-04-22T07:54:20.748Z,4.87
2019-04-22T07:56:50.509Z,6.10
2019-04-22T07:59:26.830Z,6.03
2019-04-22T08:01:55.793Z,5.60
2019-04-22T08:04:49.411Z,5.92
2019-04-22T08:07:06.822Z,5.00
2019-04-22T08:09:37.270Z,5.55
2019-04-22T08:12:02.977Z,5.25
2019-04-22T08:14:40.905Z,4.92
2019-04-22T08:17:38.804Z,4.65
2019-04-22T08:19:45.601Z,4.45
2019-04-22T08:25:01.892Z,5.20
2019-04-22T08:27:31.718Z,5.10
2019-04-22T08:30:11.761Z,4.60
2019-04-22T08:32:44.151Z,5.75
2019-04-22T08:35:12.980Z,5.30
2019-04-22T08:40:20.850Z,4.92
2019-04-22T08:45:25.346Z,5.17
2019-04-22T08:47:55.302Z,4.47
2019-04-22T08:50:28.403Z,4.40
2019-04-22T08:53:02.654Z,4.75
2019-04-22T08:55:40.348Z,4.30
2019-04-22T09:00:43.914Z,4.83
2019-04-22T09:03:16.276Z,3.50
2019-04-22T09:09:07.631Z,4.45
2019-04-22T09:11:42.013Z,3.90
2019-04-22T09:14:31.331Z,3.70
2019-04-22T09:16:58.186Z,3.80
2019-04-22T09:19:30.231Z,4.25
2019-04-22T09:28:32.693Z,4.15
2019-04-22T09:31:01.291Z,3.70
2019-04-22T09:36:41.948Z,4.17
2019-04-22T09:42:10.539Z,4.00
2019-04-22T09:47:16.559Z,3.90
2019-04-22T09:49:51.917Z,3.43
2019-04-22T09:52:14.872Z,3.67
2019-04-22T09:57:21.134Z,3.70
2019-04-22T09:59:57.794Z,3.30
2019-04-22T10:05:05.581Z,3.80
2019-04-22T10:10:09.075Z,3.43
2019-04-22T10:12:44.073Z,3.80
2019-04-22T10:15:10.086Z,4.43
2019-04-22T10:17:44.466Z,4.20
2019-04-22T10:20:16.768Z,4.27
2019-04-22T10:22:55.304Z,3.23
2019-04-22T10:25:31.302Z,3.90
2019-04-22T10:28:08.972Z,4.90
2019-04-22T10:30:43.903Z,4.13
2019-04-22T10:33:04.642Z,4.27
2019-04-22T10:35:19.150Z,3.60
2019-04-22T10:37:46.382Z,4.00
2019-04-22T10:40:36.446Z,3.83
2019-04-22T10:43:09.731Z,3.60
2019-04-22T10:45:40.050Z,4.27
2019-04-22T10:48:12.351Z,3.80
2019-04-22T10:50:48.677Z,3.23
2019-04-22T10:53:19.780Z,3.33
2019-04-22T10:55:51.521Z,3.40
2019-04-22T10:58:24.781Z,3.70
2019-04-22T11:00:56.160Z,4.70
2019-04-22T11:03:28.373Z,4.40
2019-04-22T11:05:59.308Z,5.57
2019-04-22T11:08:38.569Z,4.63
2019-04-22T11:11:16.183Z,3.80
2019-04-22T11:13:35.882Z,3.23
2019-04-22T11:16:07.455Z,3.60
2019-04-22T11:18:37.907Z,3.37
2019-04-22T11:22:20.633Z,3.13
2019-04-22T11:24:44.509Z,2.47
2019-04-22T11:27:15.000Z,3.33
2019-04-22T11:29:45.691Z,3.40
2019-04-22T11:32:18.189Z,3.20
2019-04-22T11:34:49.055Z,3.63
2019-04-22T11:37:20.593Z,3.00
2019-04-22T11:40:03.117Z,3.83
2019-04-22T11:42:23.904Z,3.43
2019-04-22T11:44:55.273Z,3.90
2019-04-22T11:47:27.778Z,3.33
2019-04-22T11:49:59.629Z,4.00
2019-04-22T11:52:30.930Z,3.63
2019-04-22T11:55:01.217Z,3.57
2019-04-22T11:57:32.859Z,3.50
2019-04-22T12:00:05.035Z,3.80
2019-04-22T12:02:36.617Z,3.63
2019-04-22T12:05:10.140Z,3.67
2019-04-22T12:07:41.087Z,4.23
2019-04-22T12:10:22.807Z,3.40
2019-04-22T12:12:47.940Z,4.33
2019-04-22T12:15:19.136Z,3.30
2019-04-22T12:17:50.932Z,3.63
2019-04-22T12:20:21.726Z,3.80
2019-04-22T12:22:53.474Z,3.37
2019-04-22T12:25:34.742Z,3.40
2019-04-22T12:27:57.169Z,3.00
2019-04-22T12:30:27.949Z,3.53
2019-04-22T12:32:58.254Z,3.60
2019-04-22T12:35:28.478Z,3.53
2019-04-22T12:38:02.648Z,3.00
2019-04-22T12:40:44.732Z,2.97
2019-04-22T12:43:26.435Z,3.63
2019-04-22T12:46:00.406Z,3.67
2019-04-22T12:48:35.016Z,3.73
2019-04-22T12:54:37.317Z,3.40
2019-04-22T12:57:12.475Z,3.90
2019-04-22T12:59:45.787Z,3.90
2019-04-22T13:02:36.704Z,3.63
2019-04-22T13:05:12.445Z,3.10
2019-04-22T13:07:45.245Z,3.53
2019-04-22T13:10:52.630Z,3.80
2019-04-22T13:13:36.903Z,3.23
2019-04-22T13:16:15.378Z,3.73
2019-04-22T13:18:55.433Z,3.70
2019-04-22T13:21:31.288Z,3.60
2019-04-22T13:24:02.747Z,3.97
2019-04-22T13:26:33.843Z,3.30
2019-04-22T13:29:05.224Z,3.73
2019-04-22T13:31:38.712Z,3.77
2019-04-22T13:34:34.719Z,3.90
2019-04-22T13:37:01.176Z,4.13
2019-04-22T13:42:30.155Z,4.03
2019-04-22T13:45:07.634Z,3.90
2019-04-22T13:47:59.660Z,3.03
2019-04-22T13:50:49.434Z,3.50
2019-04-22T13:58:09.710Z,3.67
2019-04-22T14:00:31.203Z,3.80
2019-04-22T14:03:20.352Z,3.53
2019-04-22T14:05:53.034Z,2.90
2019-04-22T14:08:29.227Z,2.70
2019-04-22T14:11:23.340Z,2.80
2019-04-22T14:13:43.825Z,3.40
2019-04-22T14:16:17.159Z,3.23
2019-04-22T14:19:11.923Z,2.90
2019-04-22T14:21:47.005Z,3.63
2019-04-22T14:24:19.874Z,3.53
2019-04-22T14:27:10.037Z,2.83
2019-04-22T14:29:26.144Z,3.57
2019-04-22T14:34:30.247Z,3.10
2019-04-22T14:37:01.519Z,3.03
2019-04-22T14:39:35.753Z,3.07
2019-04-22T14:42:28.298Z,3.03
2019-04-22T14:44:38.013Z,3.10
2019-04-22T14:45:22.039Z,3.23
2019-04-22T14:47:54.053Z,3.60
2019-04-22T14:50:32.877Z,3.50
2019-04-22T14:53:03.981Z,2.97
2019-04-22T14:55:32.387Z,2.90
2019-04-22T15:01:50.146Z,3.10
2019-04-22T15:04:35.042Z,4.47
2019-04-22T15:11:41.292Z,3.33
2019-04-22T15:14:03.154Z,2.40
2019-04-22T15:16:55.283Z,3.47
2019-04-22T15:19:47.739Z,2.23
2019-04-22T15:22:28.804Z,3.30
2019-04-22T15:25:00.907Z,3.60
2019-04-22T15:27:33.184Z,2.90
2019-04-22T15:30:12.970Z,3.27
2019-04-22T15:33:19.311Z,2.80
2019-04-22T15:35:56.883Z,3.97
2019-04-22T15:39:18.582Z,3.33
2019-04-22T15:42:06.532Z,3.13
2019-04-22T15:44:35.749Z,3.57
2019-04-22T15:47:15.268Z,3.13
2019-04-22T15:49:47.832Z,3.23
2019-04-22T15:52:28.189Z,3.60
2019-04-22T15:54:54.529Z,3.10
2019-04-22T15:57:26.767Z,3.00
2019-04-22T16:00:10.603Z,3.20
2019-04-22T16:02:35.463Z,2.77
2019-04-22T16:05:08.877Z,3.10
2019-04-22T16:08:03.318Z,3.00
2019-04-22T16:10:41.956Z,3.60
2019-04-22T16:13:20.637Z,3.20
2019-04-22T16:15:49.982Z,3.50
2019-04-22T16:18:30.773Z,2.77
2019-04-22T16:21:05.021Z,3.10
2019-04-22T16:23:46.690Z,3.30
2019-04-22T16:26:38.074Z,3.40
2019-04-22T16:32:05.354Z,3.10
2019-04-22T16:34:40.246Z,3.47
2019-04-22T16:37:16.769Z,3.40
2019-04-22T16:39:52.347Z,3.33
2019-04-22T16:42:33.827Z,3.20
2019-04-22T16:44:57.554Z,2.90
2019-04-22T16:47:31.181Z,3.57
2019-04-22T16:50:01.881Z,3.10
2019-04-22T16:52:36.289Z,3.07
2019-04-22T16:55:12.856Z,3.40
2019-04-22T16:57:46.273Z,3.10
2019-04-22T17:00:18.616Z,3.40
2019-04-22T17:03:14.416Z,3.17
2019-04-22T17:24:45.804Z,3.43
2019-04-22T18:12:16.293Z,3.17
2019-04-22T18:14:59.821Z,2.87
2019-04-22T18:17:19.390Z,3.63
2019-04-22T18:19:58.232Z,3.13
2019-04-22T18:40:15.220Z,2.80
2019-04-22T18:42:58.444Z,3.53
2019-04-22T18:45:47.246Z,3.37
2019-04-22T18:48:55.714Z,2.57
2019-04-22T18:51:35.228Z,2.77
2019-04-22T18:54:42.370Z,2.30
2019-04-22T19:00:27.447Z,2.93
2019-04-22T19:03:42.712Z,2.80
2019-04-22T19:07:24.289Z,3.95
2019-04-22T19:10:27.534Z,3.67
2019-04-22T19:13:17.494Z,3.80
2019-04-22T19:15:24.954Z,4.90
2019-04-22T19:18:04.327Z,4.70
2019-04-22T19:20:38.020Z,5.37
2019-04-22T19:26:01.008Z,5.28
2019-04-22T19:28:49.847Z,5.15
2019-04-22T19:31:17.236Z,4.67
2019-04-22T19:33:49.704Z,5.20
2019-04-22T19:36:23.790Z,4.67
2019-04-22T19:38:52.467Z,4.50
2019-04-22T19:41:29.123Z,3.90
2019-04-22T19:44:04.081Z,4.25
2019-04-22T19:46:34.768Z,4.30
2019-04-22T19:49:22.091Z,3.00
2019-04-22T19:51:52.409Z,2.80
2019-04-22T19:54:23.237Z,2.87
2019-04-22T19:57:32.569Z,3.10
2019-04-22T20:16:49.019Z,3.27
2019-04-22T20:20:19.652Z,2.90
2019-04-22T20:27:18.937Z,2.95
2019-04-22T20:33:54.547Z,3.37
2019-04-22T20:43:36.838Z,2.75
2019-04-22T20:46:39.397Z,3.80
2019-04-22T20:49:17.322Z,4.60
2019-04-22T21:16:18.245Z,2.77
2019-04-22T21:36:24.936Z,3.08
2019-04-22T21:39:40.637Z,3.10
2019-04-22T21:42:58.296Z,2.90
2019-04-22T21:45:20.793Z,3.50
2019-04-22T21:48:13.783Z,2.60
2019-04-22T21:51:16.528Z,2.72
2019-04-22T21:53:50.342Z,2.95
2019-04-22T21:56:36.857Z,2.92
2019-04-22T21:59:10.973Z,3.12
2019-04-22T22:01:52.556Z,2.12
2019-04-22T22:04:21.941Z,3.00
2019-04-22T22:10:01.764Z,2.83
2019-04-22T22:12:37.839Z,2.98
2019-04-22T22:15:31.230Z,2.92
2019-04-22T22:18:08.726Z,3.20
2019-04-22T22:21:02.205Z,2.37
2019-04-22T22:23:39.650Z,2.47
2019-04-22T22:26:13.472Z,2.35
2019-04-22T22:29:02.002Z,3.12
2019-04-22T22:31:38.241Z,2.27
2019-04-22T22:34:13.531Z,2.55
2019-04-22T22:36:45.102Z,2.83
2019-04-22T22:39:23.139Z,2.95
2019-04-22T22:41:54.279Z,3.20
2019-04-22T22:44:35.759Z,3.02
2019-04-22T22:47:42.341Z,2.72
2019-04-22T22:50:35.512Z,2.75
2019-04-22T22:53:37.154Z,2.98
2019-04-22T23:02:51.147Z,2.60
2019-04-22T23:05:18.494Z,3.25
2019-04-22T23:07:53.907Z,3.45
2019-04-22T23:10:19.751Z,3.00
2019-04-22T23:12:55.647Z,3.72
2019-04-22T23:15:23.480Z,3.20
2019-04-22T23:17:37.821Z,2.60
2019-04-22T23:20:09.668Z,3.60
2019-04-22T23:23:04.432Z,3.08
2019-04-22T23:25:33.379Z,3.50
2019-04-22T23:28:14.598Z,3.50
2019-04-22T23:30:58.042Z,3.70
2019-04-22T23:33:42.341Z,3.90
2019-04-22T23:36:26.318Z,3.75
2019-04-22T23:39:14.102Z,5.03
2019-04-22T23:41:46.277Z,3.70
2019-04-22T23:46:47.053Z,3.47
2019-04-22T23:49:18.010Z,3.58
2019-04-22T23:52:02.818Z,3.70
2019-04-22T23:54:35.879Z,2.85
2019-04-22T23:56:52.232Z,2.90
2019-04-22T23:59:44.934Z,3.10
